Aurora, WI

12:32 AM CDT on May 26, 2015 (GMT -0500)
WIDOT | | Change Station
CLOSE
Current Station
Personal Weather Station
Location: Stanley, WI
Elevation: 1070 ft
Nearby Weather Stations

Elev 1070 ft 44.95 °N, 90.94 °W | Updated 35 minutes ago

Mostly Cloudy
Mostly Cloudy
61 °F
Feels Like 61 °F
N
3
Wind Variable Wind from SE
Gusts 4.0 mph

Today
High -- | Low -- °F
--% Chance of Precip.
Yesterday
High -- | Low -- °F
Precip. -- in
5:23 AM 8:37 PM
First Quarter, 55% visible
Pressure 29.81 in
Visibility 10.0 miles
Clouds Mostly Cloudy 4800 ft
Mostly Cloudy 6500 ft
Mostly Cloudy 9000 ft
Dew Point 60 °F
Humidity 96%
Rainfall in
Snow Depth Not available.
UV 0 out of 12
Pollen .90 out of 12
Air Quality Not available.
Flu Activity Sporadic
METAR KRCX 260515Z AUTO 16005KT 10SM BKN048 BKN065 BKN090 17/16 A2981 RMK AO2 LTG DSNT S T01710162

More Conditions Fewer Conditions

Pressure 29.81 in
Visibility 10.0 miles
Clouds Mostly Cloudy 4800 ft
Mostly Cloudy 6500 ft
Mostly Cloudy 9000 ft
Dew Point 60 °F
Humidity 96%
Rainfall in
Snow Depth Not available.
UV 0 out of 12
Pollen .90 out of 12
Air Quality Not available.
Flu Activity Sporadic
METAR KRCX 260515Z AUTO 16005KT 10SM BKN048 BKN065 BKN090 17/16 A2981 RMK AO2 LTG DSNT S T01710162

More Conditions Fewer Conditions

10-Day Weather Forecast

Almanac

Astronomy

May. 26, 2015 Rise Set
Actual Time
Civil Twilight
Nautical Twilight
Astronomical Twilight
Moon
Length of Visible Light
Length of Day
Tomorrow will be .
, % of the Moon is Illuminated

Today's Extremes

State Highs State Lows

Community

WunderPhotos

Upload Photos

1,824,289 photos uploaded!

WunderBlogs® & News

Nearby

Air Quality

  Air Quality AQ Index Pollutant
Not available.

Snow Depth

Station Depth Elevation

Earthquake Activity

City Distance Mag. Time & Date
Minimum magnitude displayed is 2.5.

Coastal Water Temperatures

Place Temperature

Stations

Nearby Weather Stations

Station Location Temp. Windchill Dew Point Humidity Wind Precip. Elev Updated Type